Alpha, Illinois
Current Conditions -  °F | °C
As of 12:52 AM on Wednesday 22 Oct 2014 (Local Time) from KMLI Reporting Station
Clear Clear  
Wind Chill: 32°   Ceiling: Unl
Heat Index: 37°   Visibility: 10mi
Dew Point: 33°   Wind: 7mph
Humidity: 86%   Direction: 110°ESE
Pressure: 30.26"   Gusts: NA
Location:  41.19°N, 90.38°W
Report Text: KMLI 220552Z AUTO 11006KT 10SM CLR 03/01 A3026 RMK AO2 SLP250 T00280006 10083 20028 401500022 51005 $
Loading
Personal Weather Stations






























Interactive Weather Map New forecast layout! Learn more

10-Day Weather Forecast

Advertisements
Track Severe Weather on mobile